sensor_id;sensor_type;location;lat;lon;timestamp;temperature;humidity
17178;DHT22;8704;52.006;4.374;2023-02-23T00:01:54;8.00;1.00
17178;DHT22;8704;52.006;4.374;2023-02-23T00:04:23;8.30;1.00
17178;DHT22;8704;52.006;4.374;2023-02-23T00:06:52;8.00;1.00
17178;DHT22;8704;52.006;4.374;2023-02-23T00:09:20;8.10;1.00
17178;DHT22;8704;52.006;4.374;2023-02-23T00:11:53;7.90;1.00
17178;DHT22;8704;52.006;4.374;2023-02-23T00:14:24;8.00;1.00
17178;DHT22;8704;52.006;4.374;2023-02-23T00:16:55;8.30;1.00
17178;DHT22;8704;52.006;4.374;2023-02-23T00:19:26;8.00;1.00
17178;DHT22;8704;52.006;4.374;2023-02-23T00:21:54;8.00;1.00
17178;DHT22;8704;52.006;4.374;2023-02-23T00:24:24;8.20;1.00
17178;DHT22;8704;52.006;4.374;2023-02-23T00:26:53;8.00;1.00
17178;DHT22;8704;52.006;4.374;2023-02-23T00:29:23;8.00;1.00
17178;DHT22;8704;52.006;4.374;2023-02-23T00:31:51;8.10;1.00
17178;DHT22;8704;52.006;4.374;2023-02-23T00:34:23;8.40;1.00
17178;DHT22;8704;52.006;4.374;2023-02-23T00:36:52;7.90;1.00
17178;DHT22;8704;52.006;4.374;2023-02-23T00:39:22;8.00;1.00
17178;DHT22;8704;52.006;4.374;2023-02-23T00:41:51;8.00;1.00
17178;DHT22;8704;52.006;4.374;2023-02-23T00:44:22;8.10;1.00
17178;DHT22;8704;52.006;4.374;2023-02-23T00:46:50;8.00;1.00
17178;DHT22;8704;52.006;4.374;2023-02-23T00:49:20;8.00;1.00
17178;DHT22;8704;52.006;4.374;2023-02-23T00:51:50;8.60;1.00
17178;DHT22;8704;52.006;4.374;2023-02-23T00:54:20;8.00;1.00
17178;DHT22;8704;52.006;4.374;2023-02-23T00:56:48;8.80;1.00
17178;DHT22;8704;52.006;4.374;2023-02-23T00:59:17;8.10;1.00
17178;DHT22;8704;52.006;4.374;2023-02-23T01:01:46;8.20;1.00
17178;DHT22;8704;52.006;4.374;2023-02-23T01:04:14;8.00;1.00
17178;DHT22;8704;52.006;4.374;2023-02-23T01:06:43;8.00;1.00
17178;DHT22;8704;52.006;4.374;2023-02-23T01:09:15;8.30;1.00
17178;DHT22;8704;52.006;4.374;2023-02-23T01:11:47;8.00;1.00
17178;DHT22;8704;52.006;4.374;2023-02-23T01:14:15;8.20;1.00
17178;DHT22;8704;52.006;4.374;2023-02-23T01:16:44;8.00;1.00
17178;DHT22;8704;52.006;4.374;2023-02-23T01:19:12;8.00;1.00
17178;DHT22;8704;52.006;4.374;2023-02-23T01:21:41;8.00;1.00
17178;DHT22;8704;52.006;4.374;2023-02-23T01:24:10;8.00;1.00
17178;DHT22;8704;52.006;4.374;2023-02-23T01:26:42;7.90;1.00
17178;DHT22;8704;52.006;4.374;2023-02-23T01:29:12;8.90;1.00
17178;DHT22;8704;52.006;4.374;2023-02-23T01:31:43;8.00;1.00
17178;DHT22;8704;52.006;4.374;2023-02-23T01:34:13;7.90;1.00
17178;DHT22;8704;52.006;4.374;2023-02-23T01:36:42;7.90;1.00
17178;DHT22;8704;52.006;4.374;2023-02-23T01:39:12;8.00;1.00
17178;DHT22;8704;52.006;4.374;2023-02-23T01:41:42;8.10;1.00
17178;DHT22;8704;52.006;4.374;2023-02-23T01:47:13;7.90;1.00
17178;DHT22;8704;52.006;4.374;2023-02-23T01:49:42;8.10;1.00
17178;DHT22;8704;52.006;4.374;2023-02-23T01:52:13;7.90;1.00
17178;DHT22;8704;52.006;4.374;2023-02-23T01:54:45;8.10;1.00
17178;DHT22;8704;52.006;4.374;2023-02-23T01:57:20;7.90;1.00
17178;DHT22;8704;52.006;4.374;2023-02-23T01:59:51;7.90;1.00
17178;DHT22;8704;52.006;4.374;2023-02-23T02:02:22;8.10;1.00
17178;DHT22;8704;52.006;4.374;2023-02-23T02:04:58;7.90;1.00
17178;DHT22;8704;52.006;4.374;2023-02-23T02:07:29;7.90;1.00
17178;DHT22;8704;52.006;4.374;2023-02-23T02:10:01;8.00;1.00
17178;DHT22;8704;52.006;4.374;2023-02-23T02:13:08;8.10;1.00
17178;DHT22;8704;52.006;4.374;2023-02-23T02:15:58;7.90;1.00
17178;DHT22;8704;52.006;4.374;2023-02-23T02:18:34;7.90;1.00
17178;DHT22;8704;52.006;4.374;2023-02-23T02:21:22;7.90;1.00
17178;DHT22;8704;52.006;4.374;2023-02-23T02:27:23;7.90;1.00
17178;DHT22;8704;52.006;4.374;2023-02-23T02:30:17;7.90;1.00
17178;DHT22;8704;52.006;4.374;2023-02-23T02:33:16;7.90;1.00
17178;DHT22;8704;52.006;4.374;2023-02-23T02:36:11;7.90;1.00
17178;DHT22;8704;52.006;4.374;2023-02-23T02:38:52;7.90;1.00
17178;DHT22;8704;52.006;4.374;2023-02-23T02:41:27;7.90;1.00
17178;DHT22;8704;52.006;4.374;2023-02-23T02:44:08;8.50;1.00
17178;DHT22;8704;52.006;4.374;2023-02-23T02:46:41;8.20;1.00
17178;DHT22;8704;52.006;4.374;2023-02-23T02:49:14;7.90;1.00
17178;DHT22;8704;52.006;4.374;2023-02-23T02:51:50;7.90;1.00
17178;DHT22;8704;52.006;4.374;2023-02-23T02:54:24;8.00;1.00
17178;DHT22;8704;52.006;4.374;2023-02-23T02:56:57;8.10;1.00
17178;DHT22;8704;52.006;4.374;2023-02-23T02:59:27;7.90;1.00
17178;DHT22;8704;52.006;4.374;2023-02-23T03:02:15;7.40;1.00
17178;DHT22;8704;52.006;4.374;2023-02-23T03:05:01;7.90;1.00
17178;DHT22;8704;52.006;4.374;2023-02-23T03:07:59;7.90;1.00
17178;DHT22;8704;52.006;4.374;2023-02-23T03:10:55;7.90;1.00
17178;DHT22;8704;52.006;4.374;2023-02-23T03:13:54;7.90;1.00
17178;DHT22;8704;52.006;4.374;2023-02-23T03:16:45;7.90;1.00
17178;DHT22;8704;52.006;4.374;2023-02-23T03:19:36;7.90;1.00
17178;DHT22;8704;52.006;4.374;2023-02-23T03:22:28;7.90;1.00
17178;DHT22;8704;52.006;4.374;2023-02-23T03:25:20;7.90;1.00
17178;DHT22;8704;52.006;4.374;2023-02-23T03:28:13;7.90;1.00
17178;DHT22;8704;52.006;4.374;2023-02-23T03:31:06;7.90;1.00
17178;DHT22;8704;52.006;4.374;2023-02-23T03:33:59;7.90;1.00
17178;DHT22;8704;52.006;4.374;2023-02-23T03:36:48;7.90;1.00
17178;DHT22;8704;52.006;4.374;2023-02-23T03:39:39;7.90;1.00
17178;DHT22;8704;52.006;4.374;2023-02-23T03:42:29;7.90;1.00
17178;DHT22;8704;52.006;4.374;2023-02-23T03:45:20;7.90;1.00
17178;DHT22;8704;52.006;4.374;2023-02-23T03:48:09;7.90;1.00
17178;DHT22;8704;52.006;4.374;2023-02-23T03:51:00;8.00;1.00
17178;DHT22;8704;52.006;4.374;2023-02-23T03:53:50;7.90;1.00
17178;DHT22;8704;52.006;4.374;2023-02-23T03:56:42;7.80;1.00
17178;DHT22;8704;52.006;4.374;2023-02-23T03:59:33;7.80;1.00
17178;DHT22;8704;52.006;4.374;2023-02-23T04:02:22;7.80;1.00
17178;DHT22;8704;52.006;4.374;2023-02-23T04:05:12;8.70;1.00
17178;DHT22;8704;52.006;4.374;2023-02-23T04:08:01;8.00;1.00
17178;DHT22;8704;52.006;4.374;2023-02-23T04:10:51;7.90;1.00
17178;DHT22;8704;52.006;4.374;2023-02-23T04:13:39;7.80;1.00
17178;DHT22;8704;52.006;4.374;2023-02-23T04:16:09;7.70;1.00
17178;DHT22;8704;52.006;4.374;2023-02-23T04:18:38;7.80;1.00
17178;DHT22;8704;52.006;4.374;2023-02-23T04:21:08;7.80;1.00
17178;DHT22;8704;52.006;4.374;2023-02-23T04:23:37;7.80;1.00
17178;DHT22;8704;52.006;4.374;2023-02-23T04:26:06;7.70;1.00
17178;DHT22;8704;52.006;4.374;2023-02-23T04:28:34;8.10;1.00
17178;DHT22;8704;52.006;4.374;2023-02-23T04:31:03;7.80;1.00
17178;DHT22;8704;52.006;4.374;2023-02-23T04:33:31;7.70;1.00
17178;DHT22;8704;52.006;4.374;2023-02-23T04:36:00;8.10;1.00
17178;DHT22;8704;52.006;4.374;2023-02-23T04:38:28;7.80;1.00
17178;DHT22;8704;52.006;4.374;2023-02-23T04:40:57;7.70;1.00
17178;DHT22;8704;52.006;4.374;2023-02-23T04:43:25;8.00;1.00
17178;DHT22;8704;52.006;4.374;2023-02-23T04:45:53;7.70;1.00
17178;DHT22;8704;52.006;4.374;2023-02-23T04:48:21;7.90;1.00
17178;DHT22;8704;52.006;4.374;2023-02-23T04:50:51;7.80;1.00
17178;DHT22;8704;52.006;4.374;2023-02-23T04:53:21;7.90;1.00
17178;DHT22;8704;52.006;4.374;2023-02-23T04:55:49;7.70;1.00
17178;DHT22;8704;52.006;4.374;2023-02-23T04:58:17;7.70;1.00
17178;DHT22;8704;52.006;4.374;2023-02-23T05:00:45;8.10;1.00
17178;DHT22;8704;52.006;4.374;2023-02-23T05:03:13;7.90;1.00
17178;DHT22;8704;52.006;4.374;2023-02-23T05:05:43;8.10;1.00
17178;DHT22;8704;52.006;4.374;2023-02-23T05:08:11;7.60;1.00
17178;DHT22;8704;52.006;4.374;2023-02-23T05:10:41;7.60;1.00
17178;DHT22;8704;52.006;4.374;2023-02-23T05:13:09;7.70;1.00
17178;DHT22;8704;52.006;4.374;2023-02-23T05:15:37;7.80;1.00
17178;DHT22;8704;52.006;4.374;2023-02-23T05:18:05;8.00;1.00
17178;DHT22;8704;52.006;4.374;2023-02-23T05:20:34;7.80;1.00
17178;DHT22;8704;52.006;4.374;2023-02-23T05:23:02;7.60;1.00
17178;DHT22;8704;52.006;4.374;2023-02-23T05:25:30;7.70;1.00
17178;DHT22;8704;52.006;4.374;2023-02-23T05:28:00;8.00;1.00
17178;DHT22;8704;52.006;4.374;2023-02-23T05:30:29;7.60;1.00
17178;DHT22;8704;52.006;4.374;2023-02-23T05:32:57;7.60;1.00
17178;DHT22;8704;52.006;4.374;2023-02-23T05:35:25;7.80;1.00
17178;DHT22;8704;52.006;4.374;2023-02-23T05:37:53;8.10;1.00
17178;DHT22;8704;52.006;4.374;2023-02-23T05:40:21;7.50;1.00
17178;DHT22;8704;52.006;4.374;2023-02-23T05:42:49;7.60;1.00
17178;DHT22;8704;52.006;4.374;2023-02-23T05:45:18;8.50;1.00
17178;DHT22;8704;52.006;4.374;2023-02-23T05:47:47;7.60;1.00
17178;DHT22;8704;52.006;4.374;2023-02-23T05:50:15;7.70;1.00
17178;DHT22;8704;52.006;4.374;2023-02-23T05:52:43;7.60;1.00
17178;DHT22;8704;52.006;4.374;2023-02-23T05:55:11;7.50;1.00
17178;DHT22;8704;52.006;4.374;2023-02-23T05:57:39;8.00;1.00
17178;DHT22;8704;52.006;4.374;2023-02-23T06:00:10;7.50;1.00
17178;DHT22;8704;52.006;4.374;2023-02-23T06:02:40;7.50;1.00
17178;DHT22;8704;52.006;4.374;2023-02-23T06:05:09;7.60;1.00
17178;DHT22;8704;52.006;4.374;2023-02-23T06:07:37;7.70;1.00
17178;DHT22;8704;52.006;4.374;2023-02-23T06:10:06;7.50;1.00
17178;DHT22;8704;52.006;4.374;2023-02-23T06:12:35;7.50;1.00
17178;DHT22;8704;52.006;4.374;2023-02-23T06:15:03;7.50;1.00
17178;DHT22;8704;52.006;4.374;2023-02-23T06:17:32;7.20;1.00
17178;DHT22;8704;52.006;4.374;2023-02-23T06:20:01;7.70;1.00
17178;DHT22;8704;52.006;4.374;2023-02-23T06:22:30;7.50;1.00
17178;DHT22;8704;52.006;4.374;2023-02-23T06:24:58;7.80;1.00
17178;DHT22;8704;52.006;4.374;2023-02-23T06:27:28;7.60;1.00
17178;DHT22;8704;52.006;4.374;2023-02-23T06:29:56;7.50;1.00
17178;DHT22;8704;52.006;4.374;2023-02-23T06:32:24;7.60;1.00
17178;DHT22;8704;52.006;4.374;2023-02-23T06:34:52;7.50;1.00
17178;DHT22;8704;52.006;4.374;2023-02-23T06:37:22;7.50;1.00
17178;DHT22;8704;52.006;4.374;2023-02-23T06:39:50;7.60;1.00
17178;DHT22;8704;52.006;4.374;2023-02-23T06:42:18;7.40;1.00
17178;DHT22;8704;52.006;4.374;2023-02-23T06:44:46;7.70;1.00
17178;DHT22;8704;52.006;4.374;2023-02-23T06:47:14;7.70;1.00
17178;DHT22;8704;52.006;4.374;2023-02-23T06:49:42;7.40;1.00
17178;DHT22;8704;52.006;4.374;2023-02-23T06:52:10;7.40;1.00
17178;DHT22;8704;52.006;4.374;2023-02-23T06:54:40;7.50;1.00
17178;DHT22;8704;52.006;4.374;2023-02-23T06:57:09;7.50;1.00
17178;DHT22;8704;52.006;4.374;2023-02-23T06:59:37;7.50;1.00
17178;DHT22;8704;52.006;4.374;2023-02-23T07:02:05;7.40;1.00
17178;DHT22;8704;52.006;4.374;2023-02-23T07:04:33;7.50;1.00
17178;DHT22;8704;52.006;4.374;2023-02-23T07:07:01;7.40;1.00
17178;DHT22;8704;52.006;4.374;2023-02-23T07:09:29;7.40;1.00
17178;DHT22;8704;52.006;4.374;2023-02-23T07:12:00;7.80;1.00
17178;DHT22;8704;52.006;4.374;2023-02-23T07:14:28;7.40;1.00
17178;DHT22;8704;52.006;4.374;2023-02-23T07:16:56;7.40;1.00
17178;DHT22;8704;52.006;4.374;2023-02-23T07:19:24;7.70;1.00
17178;DHT22;8704;52.006;4.374;2023-02-23T07:21:52;7.40;1.00
17178;DHT22;8704;52.006;4.374;2023-02-23T07:24:20;7.40;1.00
17178;DHT22;8704;52.006;4.374;2023-02-23T07:26:49;7.40;1.00
17178;DHT22;8704;52.006;4.374;2023-02-23T07:29:19;8.10;1.00
17178;DHT22;8704;52.006;4.374;2023-02-23T07:31:49;7.80;1.00
17178;DHT22;8704;52.006;4.374;2023-02-23T07:34:18;7.50;1.00
17178;DHT22;8704;52.006;4.374;2023-02-23T07:36:46;7.40;1.00
17178;DHT22;8704;52.006;4.374;2023-02-23T07:39:14;7.80;1.00
17178;DHT22;8704;52.006;4.374;2023-02-23T07:41:42;7.50;1.00
17178;DHT22;8704;52.006;4.374;2023-02-23T07:44:10;7.60;1.00
17178;DHT22;8704;52.006;4.374;2023-02-23T07:46:40;7.50;1.00
17178;DHT22;8704;52.006;4.374;2023-02-23T07:49:08;7.50;1.00
17178;DHT22;8704;52.006;4.374;2023-02-23T07:51:38;7.70;1.00
17178;DHT22;8704;52.006;4.374;2023-02-23T07:54:06;7.50;1.00
17178;DHT22;8704;52.006;4.374;2023-02-23T07:56:34;7.60;1.00
17178;DHT22;8704;52.006;4.374;2023-02-23T07:59:02;7.60;1.00
17178;DHT22;8704;52.006;4.374;2023-02-23T08:01:30;7.80;1.00
17178;DHT22;8704;52.006;4.374;2023-02-23T08:04:00;7.60;1.00
17178;DHT22;8704;52.006;4.374;2023-02-23T08:06:29;7.70;1.00
17178;DHT22;8704;52.006;4.374;2023-02-23T08:08:57;7.60;1.00
17178;DHT22;8704;52.006;4.374;2023-02-23T08:11:26;7.60;1.00
17178;DHT22;8704;52.006;4.374;2023-02-23T08:13:55;7.60;1.00
17178;DHT22;8704;52.006;4.374;2023-02-23T08:16:26;8.20;1.00
17178;DHT22;8704;52.006;4.374;2023-02-23T08:18:55;7.70;1.00
17178;DHT22;8704;52.006;4.374;2023-02-23T08:21:26;7.90;1.00
17178;DHT22;8704;52.006;4.374;2023-02-23T08:23:55;7.70;1.00
17178;DHT22;8704;52.006;4.374;2023-02-23T08:26:24;7.90;1.00
17178;DHT22;8704;52.006;4.374;2023-02-23T08:28:52;7.80;1.00
17178;DHT22;8704;52.006;4.374;2023-02-23T08:31:21;8.40;1.00
17178;DHT22;8704;52.006;4.374;2023-02-23T08:33:51;7.80;99.90
17178;DHT22;8704;52.006;4.374;2023-02-23T08:36:20;8.40;99.90
17178;DHT22;8704;52.006;4.374;2023-02-23T08:38:49;7.90;99.90
17178;DHT22;8704;52.006;4.374;2023-02-23T08:41:20;7.90;99.90
17178;DHT22;8704;52.006;4.374;2023-02-23T08:43:48;8.00;99.90
17178;DHT22;8704;52.006;4.374;2023-02-23T08:46:16;8.00;99.90
17178;DHT22;8704;52.006;4.374;2023-02-23T08:48:46;7.90;99.90
17178;DHT22;8704;52.006;4.374;2023-02-23T08:51:14;8.10;99.90
17178;DHT22;8704;52.006;4.374;2023-02-23T08:53:42;8.00;99.90
17178;DHT22;8704;52.006;4.374;2023-02-23T08:56:12;8.00;99.90
17178;DHT22;8704;52.006;4.374;2023-02-23T08:58:41;8.00;99.90
17178;DHT22;8704;52.006;4.374;2023-02-23T09:01:16;8.10;99.90
17178;DHT22;8704;52.006;4.374;2023-02-23T09:03:45;8.20;99.90
17178;DHT22;8704;52.006;4.374;2023-02-23T09:06:16;8.20;99.90
17178;DHT22;8704;52.006;4.374;2023-02-23T09:08:44;8.30;99.90
17178;DHT22;8704;52.006;4.374;2023-02-23T09:11:14;9.20;99.90
17178;DHT22;8704;52.006;4.374;2023-02-23T09:13:42;8.30;99.90
17178;DHT22;8704;52.006;4.374;2023-02-23T09:16:10;8.40;99.90
17178;DHT22;8704;52.006;4.374;2023-02-23T09:18:39;8.50;99.90
17178;DHT22;8704;52.006;4.374;2023-02-23T09:21:13;8.60;91.10
17178;DHT22;8704;52.006;4.374;2023-02-23T09:23:45;8.50;92.00
17178;DHT22;8704;52.006;4.374;2023-02-23T09:26:15;8.50;1.00
17178;DHT22;8704;52.006;4.374;2023-02-23T09:28:44;8.50;1.00
17178;DHT22;8704;52.006;4.374;2023-02-23T09:31:16;8.70;1.00
17178;DHT22;8704;52.006;4.374;2023-02-23T09:33:46;8.50;1.00
17178;DHT22;8704;52.006;4.374;2023-02-23T09:36:16;8.60;1.00
17178;DHT22;8704;52.006;4.374;2023-02-23T09:38:45;8.60;1.00
17178;DHT22;8704;52.006;4.374;2023-02-23T09:44:36;8.60;1.00
17178;DHT22;8704;52.006;4.374;2023-02-23T09:47:27;8.70;1.00
17178;DHT22;8704;52.006;4.374;2023-02-23T09:49:59;8.70;1.00
17178;DHT22;8704;52.006;4.374;2023-02-23T09:52:37;8.70;1.00
17178;DHT22;8704;52.006;4.374;2023-02-23T09:55:07;8.90;1.00
17178;DHT22;8704;52.006;4.374;2023-02-23T09:57:39;8.70;1.00
17178;DHT22;8704;52.006;4.374;2023-02-23T10:00:21;8.80;1.00
17178;DHT22;8704;52.006;4.374;2023-02-23T10:05:46;9.30;1.00
17178;DHT22;8704;52.006;4.374;2023-02-23T10:08:29;9.10;1.00
17178;DHT22;8704;52.006;4.374;2023-02-23T10:11:05;8.90;1.00
17178;DHT22;8704;52.006;4.374;2023-02-23T10:13:47;8.90;1.00
17178;DHT22;8704;52.006;4.374;2023-02-23T10:16:22;8.80;1.00
17178;DHT22;8704;52.006;4.374;2023-02-23T10:18:55;8.90;1.00
17178;DHT22;8704;52.006;4.374;2023-02-23T10:21:30;8.90;1.00
17178;DHT22;8704;52.006;4.374;2023-02-23T10:24:04;9.00;1.00
17178;DHT22;8704;52.006;4.374;2023-02-23T10:26:38;9.00;1.00
17178;DHT22;8704;52.006;4.374;2023-02-23T10:29:20;9.10;1.00
17178;DHT22;8704;52.006;4.374;2023-02-23T10:31:53;9.20;1.00
17178;DHT22;8704;52.006;4.374;2023-02-23T10:34:26;9.00;1.00
17178;DHT22;8704;52.006;4.374;2023-02-23T10:36:57;9.00;1.00
17178;DHT22;8704;52.006;4.374;2023-02-23T10:39:28;9.00;1.00
17178;DHT22;8704;52.006;4.374;2023-02-23T10:41:58;9.00;1.00
17178;DHT22;8704;52.006;4.374;2023-02-23T10:44:28;9.30;1.00
17178;DHT22;8704;52.006;4.374;2023-02-23T10:46:58;8.90;1.00
17178;DHT22;8704;52.006;4.374;2023-02-23T10:49:38;8.90;1.00
17178;DHT22;8704;52.006;4.374;2023-02-23T10:52:10;8.90;1.00
17178;DHT22;8704;52.006;4.374;2023-02-23T10:54:42;9.20;1.00
17178;DHT22;8704;52.006;4.374;2023-02-23T10:57:18;9.00;1.00
17178;DHT22;8704;52.006;4.374;2023-02-23T11:00:23;8.90;1.00
17178;DHT22;8704;52.006;4.374;2023-02-23T11:02:56;8.80;1.00
17178;DHT22;8704;52.006;4.374;2023-02-23T11:05:34;8.80;1.00
17178;DHT22;8704;52.006;4.374;2023-02-23T11:08:23;8.70;1.00
17178;DHT22;8704;52.006;4.374;2023-02-23T11:10:57;8.80;1.00
17178;DHT22;8704;52.006;4.374;2023-02-23T11:13:27;8.80;1.00
17178;DHT22;8704;52.006;4.374;2023-02-23T11:16:00;8.80;1.00
17178;DHT22;8704;52.006;4.374;2023-02-23T11:18:29;8.80;1.00
17178;DHT22;8704;52.006;4.374;2023-02-23T11:20:58;8.80;1.00
17178;DHT22;8704;52.006;4.374;2023-02-23T11:23:29;9.10;1.00
17178;DHT22;8704;52.006;4.374;2023-02-23T11:26:00;9.00;1.00
17178;DHT22;8704;52.006;4.374;2023-02-23T11:28:31;8.90;1.00
17178;DHT22;8704;52.006;4.374;2023-02-23T11:31:02;9.00;1.00
17178;DHT22;8704;52.006;4.374;2023-02-23T11:33:33;9.20;1.00
17178;DHT22;8704;52.006;4.374;2023-02-23T11:36:14;9.10;1.00
17178;DHT22;8704;52.006;4.374;2023-02-23T11:38:43;9.10;1.00
17178;DHT22;8704;52.006;4.374;2023-02-23T11:41:20;9.10;1.00
17178;DHT22;8704;52.006;4.374;2023-02-23T11:43:49;9.20;1.00
17178;DHT22;8704;52.006;4.374;2023-02-23T11:46:20;9.20;1.00
17178;DHT22;8704;52.006;4.374;2023-02-23T11:48:51;9.30;1.00
17178;DHT22;8704;52.006;4.374;2023-02-23T11:51:26;9.30;1.00
17178;DHT22;8704;52.006;4.374;2023-02-23T11:53:54;9.30;1.00
17178;DHT22;8704;52.006;4.374;2023-02-23T11:56:24;9.30;1.00
17178;DHT22;8704;52.006;4.374;2023-02-23T11:58:54;9.30;1.00
17178;DHT22;8704;52.006;4.374;2023-02-23T12:01:37;9.30;1.00
17178;DHT22;8704;52.006;4.374;2023-02-23T12:04:07;9.30;1.00
17178;DHT22;8704;52.006;4.374;2023-02-23T12:06:38;9.70;1.00
17178;DHT22;8704;52.006;4.374;2023-02-23T12:09:15;9.50;1.00
17178;DHT22;8704;52.006;4.374;2023-02-23T12:11:49;9.40;1.00
17178;DHT22;8704;52.006;4.374;2023-02-23T12:14:24;9.50;1.00
17178;DHT22;8704;52.006;4.374;2023-02-23T12:17:00;9.50;1.00
17178;DHT22;8704;52.006;4.374;2023-02-23T12:19:32;9.50;1.00
17178;DHT22;8704;52.006;4.374;2023-02-23T12:22:06;9.90;1.00
17178;DHT22;8704;52.006;4.374;2023-02-23T12:24:43;9.50;1.00
17178;DHT22;8704;52.006;4.374;2023-02-23T12:27:14;9.70;1.00
17178;DHT22;8704;52.006;4.374;2023-02-23T12:29:59;9.70;1.00
17178;DHT22;8704;52.006;4.374;2023-02-23T12:32:44;9.80;1.00
17178;DHT22;8704;52.006;4.374;2023-02-23T12:35:17;9.80;1.00
17178;DHT22;8704;52.006;4.374;2023-02-23T12:37:47;10.50;1.00
17178;DHT22;8704;52.006;4.374;2023-02-23T12:40:20;10.30;1.00
17178;DHT22;8704;52.006;4.374;2023-02-23T12:42:56;9.70;1.00
17178;DHT22;8704;52.006;4.374;2023-02-23T12:45:31;9.60;99.90
17178;DHT22;8704;52.006;4.374;2023-02-23T12:48:11;9.70;1.00
17178;DHT22;8704;52.006;4.374;2023-02-23T12:50:47;9.70;1.00
17178;DHT22;8704;52.006;4.374;2023-02-23T12:53:20;9.60;1.00
17178;DHT22;8704;52.006;4.374;2023-02-23T12:55:59;9.70;1.00
17178;DHT22;8704;52.006;4.374;2023-02-23T12:58:38;9.70;1.00
17178;DHT22;8704;52.006;4.374;2023-02-23T13:01:09;9.80;1.00
17178;DHT22;8704;52.006;4.374;2023-02-23T13:04:16;9.80;1.00
17178;DHT22;8704;52.006;4.374;2023-02-23T13:06:54;9.70;99.90
17178;DHT22;8704;52.006;4.374;2023-02-23T13:09:34;9.70;99.90
17178;DHT22;8704;52.006;4.374;2023-02-23T13:12:17;9.70;99.90
17178;DHT22;8704;52.006;4.374;2023-02-23T13:14:57;9.90;1.00
17178;DHT22;8704;52.006;4.374;2023-02-23T13:17:32;9.90;1.00
17178;DHT22;8704;52.006;4.374;2023-02-23T13:20:10;10.40;1.00
17178;DHT22;8704;52.006;4.374;2023-02-23T13:22:44;9.80;1.00
17178;DHT22;8704;52.006;4.374;2023-02-23T13:25:22;9.90;1.00
17178;DHT22;8704;52.006;4.374;2023-02-23T13:27:56;9.90;1.00
17178;DHT22;8704;52.006;4.374;2023-02-23T13:30:26;9.90;1.00
17178;DHT22;8704;52.006;4.374;2023-02-23T13:32:59;10.00;1.00
17178;DHT22;8704;52.006;4.374;2023-02-23T13:35:33;9.90;1.00
17178;DHT22;8704;52.006;4.374;2023-02-23T13:38:11;10.00;1.00
17178;DHT22;8704;52.006;4.374;2023-02-23T13:40:45;10.00;1.00
17178;DHT22;8704;52.006;4.374;2023-02-23T13:43:21;10.10;1.00
17178;DHT22;8704;52.006;4.374;2023-02-23T13:45:58;10.10;1.00
17178;DHT22;8704;52.006;4.374;2023-02-23T13:48:36;10.50;1.00
17178;DHT22;8704;52.006;4.374;2023-02-23T13:51:30;10.30;1.00
17178;DHT22;8704;52.006;4.374;2023-02-23T13:54:03;10.10;1.00
17178;DHT22;8704;52.006;4.374;2023-02-23T13:56:33;10.10;1.00
17178;DHT22;8704;52.006;4.374;2023-02-23T13:59:05;10.20;1.00
17178;DHT22;8704;52.006;4.374;2023-02-23T14:01:37;10.20;1.00
17178;DHT22;8704;52.006;4.374;2023-02-23T14:04:12;10.20;1.00
17178;DHT22;8704;52.006;4.374;2023-02-23T14:06:53;10.10;1.00
17178;DHT22;8704;52.006;4.374;2023-02-23T14:09:27;10.00;1.00
17178;DHT22;8704;52.006;4.374;2023-02-23T14:12:03;10.00;1.00
17178;DHT22;8704;52.006;4.374;2023-02-23T14:14:41;10.00;1.00
17178;DHT22;8704;52.006;4.374;2023-02-23T14:17:53;10.10;1.00
17178;DHT22;8704;52.006;4.374;2023-02-23T14:20:45;10.10;1.00
17178;DHT22;8704;52.006;4.374;2023-02-23T14:23:29;10.10;1.00
17178;DHT22;8704;52.006;4.374;2023-02-23T14:26:12;10.10;1.00
17178;DHT22;8704;52.006;4.374;2023-02-23T14:28:44;10.00;1.00
17178;DHT22;8704;52.006;4.374;2023-02-23T14:31:19;10.00;1.00
17178;DHT22;8704;52.006;4.374;2023-02-23T14:33:53;10.00;1.00
17178;DHT22;8704;52.006;4.374;2023-02-23T14:36:40;9.90;1.00
17178;DHT22;8704;52.006;4.374;2023-02-23T14:39:18;9.90;1.00
17178;DHT22;8704;52.006;4.374;2023-02-23T14:41:52;9.80;1.00
17178;DHT22;8704;52.006;4.374;2023-02-23T14:44:25;9.80;1.00
17178;DHT22;8704;52.006;4.374;2023-02-23T14:47:02;9.90;1.00
17178;DHT22;8704;52.006;4.374;2023-02-23T14:49:32;10.50;1.00
17178;DHT22;8704;52.006;4.374;2023-02-23T14:52:07;9.90;1.00
17178;DHT22;8704;52.006;4.374;2023-02-23T14:54:38;9.90;1.00
17178;DHT22;8704;52.006;4.374;2023-02-23T14:57:16;10.00;1.00
17178;DHT22;8704;52.006;4.374;2023-02-23T14:59:50;10.20;1.00
17178;DHT22;8704;52.006;4.374;2023-02-23T15:02:20;9.80;1.00
17178;DHT22;8704;52.006;4.374;2023-02-23T15:04:50;9.70;1.00
17178;DHT22;8704;52.006;4.374;2023-02-23T15:07:21;9.90;1.00
17178;DHT22;8704;52.006;4.374;2023-02-23T15:09:56;9.60;1.00
17178;DHT22;8704;52.006;4.374;2023-02-23T15:12:27;10.30;1.00
17178;DHT22;8704;52.006;4.374;2023-02-23T15:14:58;9.60;1.00
17178;DHT22;8704;52.006;4.374;2023-02-23T15:17:30;9.60;1.00
17178;DHT22;8704;52.006;4.374;2023-02-23T15:20:02;9.50;1.00
17178;DHT22;8704;52.006;4.374;2023-02-23T15:22:44;9.50;1.00
17178;DHT22;8704;52.006;4.374;2023-02-23T15:25:17;9.50;1.00
17178;DHT22;8704;52.006;4.374;2023-02-23T15:27:47;9.50;1.00
17178;DHT22;8704;52.006;4.374;2023-02-23T15:30:23;9.40;1.00
17178;DHT22;8704;52.006;4.374;2023-02-23T15:33:01;9.30;1.00
17178;DHT22;8704;52.006;4.374;2023-02-23T15:35:32;9.20;1.00
17178;DHT22;8704;52.006;4.374;2023-02-23T15:38:07;9.50;1.00
17178;DHT22;8704;52.006;4.374;2023-02-23T15:40:55;9.10;1.00
17178;DHT22;8704;52.006;4.374;2023-02-23T15:43:24;9.60;1.00
17178;DHT22;8704;52.006;4.374;2023-02-23T15:45:57;8.90;1.00
17178;DHT22;8704;52.006;4.374;2023-02-23T15:48:39;8.90;1.00
17178;DHT22;8704;52.006;4.374;2023-02-23T15:51:21;8.90;1.00
17178;DHT22;8704;52.006;4.374;2023-02-23T15:53:52;8.80;1.00
17178;DHT22;8704;52.006;4.374;2023-02-23T15:56:25;8.70;1.00
17178;DHT22;8704;52.006;4.374;2023-02-23T15:58:56;8.70;1.00
17178;DHT22;8704;52.006;4.374;2023-02-23T16:01:26;8.70;1.00
17178;DHT22;8704;52.006;4.374;2023-02-23T16:03:59;8.60;1.00
17178;DHT22;8704;52.006;4.374;2023-02-23T16:06:32;8.90;1.00
17178;DHT22;8704;52.006;4.374;2023-02-23T16:09:10;8.70;1.00
17178;DHT22;8704;52.006;4.374;2023-02-23T16:11:52;8.70;1.00
17178;DHT22;8704;52.006;4.374;2023-02-23T16:14:22;8.60;1.00
17178;DHT22;8704;52.006;4.374;2023-02-23T16:16:52;8.50;1.00
17178;DHT22;8704;52.006;4.374;2023-02-23T16:19:36;8.50;1.00
17178;DHT22;8704;52.006;4.374;2023-02-23T16:22:17;8.30;1.00
17178;DHT22;8704;52.006;4.374;2023-02-23T16:24:54;8.40;1.00
17178;DHT22;8704;52.006;4.374;2023-02-23T16:27:26;8.50;1.00
17178;DHT22;8704;52.006;4.374;2023-02-23T16:29:57;9.00;1.00
17178;DHT22;8704;52.006;4.374;2023-02-23T16:32:35;8.50;1.00
17178;DHT22;8704;52.006;4.374;2023-02-23T16:35:13;8.30;1.00
17178;DHT22;8704;52.006;4.374;2023-02-23T16:37:57;8.30;1.00
17178;DHT22;8704;52.006;4.374;2023-02-23T16:40:25;8.20;1.00
17178;DHT22;8704;52.006;4.374;2023-02-23T16:42:55;8.30;1.00
17178;DHT22;8704;52.006;4.374;2023-02-23T16:45:25;8.20;1.00
17178;DHT22;8704;52.006;4.374;2023-02-23T16:47:55;8.20;1.00
17178;DHT22;8704;52.006;4.374;2023-02-23T16:50:27;8.30;1.00
17178;DHT22;8704;52.006;4.374;2023-02-23T16:52:56;8.30;1.00
17178;DHT22;8704;52.006;4.374;2023-02-23T16:55:25;8.10;1.00
17178;DHT22;8704;52.006;4.374;2023-02-23T16:57:57;8.00;1.00
17178;DHT22;8704;52.006;4.374;2023-02-23T17:00:28;8.90;1.00
17178;DHT22;8704;52.006;4.374;2023-02-23T17:02:57;7.90;1.00
17178;DHT22;8704;52.006;4.374;2023-02-23T17:05:27;7.90;1.00
17178;DHT22;8704;52.006;4.374;2023-02-23T17:07:56;7.90;1.00
17178;DHT22;8704;52.006;4.374;2023-02-23T17:10:27;8.20;1.00